Time;durP1;ratioP1;P1;durP2;ratioP2;P2;SDS_P1;SDS_P2;PMS_P1;PMS_P2;Temp;Humidity;BMP_temperature;BMP_pressure;BME280_temperature;BME280_humidity;BME280_pressure;Samples;Min_cycle;Max_cycle;Signal;HPM_P1;HPM_P2
2022/02/05 00:01:39;;;;;;;;;;;;;;;14.95;53.16;100832.44;4960579;28;19922;-81
2022/02/05 00:04:24;;;;;;;;;;;;;;;15.01;53.54;100831.09;4962738;28;19914;-81
2022/02/05 00:07:10;;;;;;;;;;;;;;;15.02;53.10;100835.41;4961576;28;19918;-81
2022/02/05 00:40:45;;;;;;;;;;;;;;;14.98;52.62;100829.03;4965548;28;20315;-80
2022/02/05 00:43:23;;;;;;;;;;;;;;;14.94;52.44;100815.22;4963116;28;19914;-80
2022/02/05 00:46:08;;;;;;;;;;;;;;;14.95;52.56;100816.81;4960747;28;19919;-82
2022/02/05 00:48:53;;;;;;;;;;;;;;;14.95;52.69;100826.97;4959243;28;19914;-80
2022/02/05 00:51:53;;;;;;;;;;;;;;;14.98;52.88;100826.31;4963322;28;19914;-81
2022/02/05 00:54:39;;;;;;;;;;;;;;;14.99;52.49;100831.41;4959996;28;19915;-81
2022/02/05 01:00:12;;;;;;;;;;;;;;;14.96;52.20;100821.16;4963657;28;19914;-81
2022/02/05 01:02:57;;;;;;;;;;;;;;;14.95;51.91;100816.81;4961589;28;19914;-80
2022/02/05 01:05:43;;;;;;;;;;;;;;;14.94;51.67;100817.94;4962585;28;20311;-81
2022/02/05 01:08:28;;;;;;;;;;;;;;;14.94;51.76;100825.34;4963193;28;20298;-81
2022/02/05 01:11:13;;;;;;;;;;;;;;;14.82;51.71;100841.78;4960663;28;19914;-81
2022/02/05 01:13:59;;;;;;;;;;;;;;;14.84;51.77;100839.50;4957788;28;19915;-81
2022/02/05 01:16:58;;;;;;;;;;;;;;;14.93;52.19;100840.22;4958924;28;20291;-81
2022/02/05 01:22:40;;;;;;;;;;;;;;;14.92;52.33;100838.63;4963060;28;19914;-81
2022/02/05 01:25:30;;;;;;;;;;;;;;;14.90;51.84;100843.63;4961203;28;19915;-82
2022/02/05 01:28:19;;;;;;;;;;;;;;;14.89;51.77;100836.53;4958366;28;19922;-81
2022/02/05 01:31:04;;;;;;;;;;;;;;;14.88;51.91;100837.69;4961667;28;19914;-80
2022/02/05 01:49:52;;;;;;;;;;;;;;;14.76;52.43;100813.03;4945243;29;19919;-81
2022/02/05 01:55:01;;;;;;;;;;;;;;;14.73;51.72;100819.22;4959541;28;19914;-81
2022/02/05 02:12:38;;;;;;;;;;;;;;;14.79;52.94;100831.50;4954785;28;19914;-81
2022/02/05 02:15:27;;;;;;;;;;;;;;;14.79;53.00;100840.53;4959485;28;19914;-81
2022/02/05 02:24:25;;;;;;;;;;;;;;;14.77;52.57;100845.56;4938646;29;19914;-81
2022/02/05 02:30:10;;;;;;;;;;;;;;;14.75;51.53;100836.06;4938430;29;19915;-81
2022/02/05 02:33:16;;;;;;;;;;;;;;;14.68;51.72;100838.59;4956081;28;19914;-81
2022/02/05 02:36:03;;;;;;;;;;;;;;;14.62;51.12;100838.00;4956237;29;19914;-81
2022/02/05 02:38:51;;;;;;;;;;;;;;;14.66;51.30;100840.84;4957390;28;19914;-82
2022/02/05 02:41:45;;;;;;;;;;;;;;;14.61;51.31;100844.59;4964631;28;19914;-81
2022/02/05 02:44:30;;;;;;;;;;;;;;;14.54;51.81;100842.41;4961366;28;19914;-81
2022/02/05 02:47:15;;;;;;;;;;;;;;;14.53;51.78;100849.03;4965962;28;19919;-81
2022/02/05 02:50:09;;;;;;;;;;;;;;;14.50;51.60;100846.97;4961793;28;19914;-81
2022/02/05 02:59:07;;;;;;;;;;;;;;;14.50;52.01;100849.72;4962183;28;19914;-80
2022/02/05 03:01:59;;;;;;;;;;;;;;;14.53;52.06;100846.28;4959731;28;19915;-80
2022/02/05 03:04:43;;;;;;;;;;;;;;;14.47;51.98;100861.34;4957204;28;20527;-82
2022/02/05 03:07:28;;;;;;;;;;;;;;;14.52;53.52;100858.41;4960883;28;20303;-81
2022/02/05 03:10:13;;;;;;;;;;;;;;;14.53;53.73;100854.50;4962953;28;19922;-81
2022/02/05 03:12:57;;;;;;;;;;;;;;;14.54;51.64;100860.78;4964407;28;19914;-81
2022/02/05 03:15:42;;;;;;;;;;;;;;;14.46;51.31;100865.22;4960864;28;19914;-81
2022/02/05 03:19:08;;;;;;;;;;;;;;;14.37;50.74;100861.78;4957002;28;19926;-81
2022/02/05 03:21:32;;;;;;;;;;;;;;;14.43;52.99;100865.06;4959529;28;20344;-80
2022/02/05 03:24:16;;;;;;;;;;;;;;;14.49;53.41;100859.06;4953467;28;19914;-81
2022/02/05 03:27:01;;;;;;;;;;;;;;;14.48;53.06;100857.44;4972097;28;19918;-81
2022/02/05 03:29:48;;;;;;;;;;;;;;;14.47;52.73;100855.88;4965033;28;20299;-81
2022/02/05 03:32:32;;;;;;;;;;;;;;;14.40;52.15;100844.66;4980686;28;19914;-80
2022/02/05 03:35:17;;;;;;;;;;;;;;;14.46;53.24;100851.53;4971459;28;19918;-81
2022/02/05 03:38:01;;;;;;;;;;;;;;;14.47;53.19;100849.59;4966722;28;19914;-81
2022/02/05 03:40:45;;;;;;;;;;;;;;;14.45;52.45;100851.84;4959631;28;19914;-81
2022/02/05 03:43:30;;;;;;;;;;;;;;;14.40;51.70;100850.13;4964824;28;20290;-79
2022/02/05 03:46:14;;;;;;;;;;;;;;;14.43;53.19;100846.72;4961122;28;20380;-82
2022/02/05 03:48:58;;;;;;;;;;;;;;;14.46;53.31;100848.78;4961197;28;20307;-80
2022/02/05 03:51:44;;;;;;;;;;;;;;;14.45;52.79;100851.84;4964968;28;19914;-81
2022/02/05 03:54:30;;;;;;;;;;;;;;;14.46;53.66;100864.41;4962162;28;19919;-81
2022/02/05 03:57:15;;;;;;;;;;;;;;;14.35;51.63;100864.00;4941678;29;19914;-80
2022/02/05 04:00:03;;;;;;;;;;;;;;;14.27;50.64;100873.09;4946007;29;19926;-81
2022/02/05 04:02:50;;;;;;;;;;;;;;;14.22;50.89;100877.97;4941592;29;19914;-81
2022/02/05 04:05:35;;;;;;;;;;;;;;;14.25;51.27;100864.41;4959902;28;19914;-81
2022/02/05 04:08:19;;;;;;;;;;;;;;;14.29;52.79;100859.88;4968067;28;19922;-80
2022/02/05 04:11:12;;;;;;;;;;;;;;;14.32;53.70;100866.63;4964210;28;19914;-81
2022/02/05 04:17:01;;;;;;;;;;;;;;;14.36;53.94;100865.63;4964266;28;20298;-81
2022/02/05 04:19:45;;;;;;;;;;;;;;;14.30;53.11;100861.47;4960111;29;19915;-81
2022/02/05 04:22:30;;;;;;;;;;;;;;;14.28;52.03;100862.94;4961037;28;20367;-81
2022/02/05 04:25:15;;;;;;;;;;;;;;;14.26;51.77;100859.75;4963828;28;19914;-81
2022/02/05 04:27:59;;;;;;;;;;;;;;;14.29;52.52;100868.06;4962153;28;19918;-80
2022/02/05 04:30:44;;;;;;;;;;;;;;;14.31;52.80;100865.81;4960802;28;19914;-80
2022/02/05 04:33:28;;;;;;;;;;;;;;;14.30;53.13;100866.13;4964772;28;19914;-81
2022/02/05 04:36:14;;;;;;;;;;;;;;;14.30;52.98;100869.69;4961069;28;19915;-81
2022/02/05 04:39:05;;;;;;;;;;;;;;;14.32;53.32;100875.63;4950341;29;19918;-82
2022/02/05 04:42:16;;;;;;;;;;;;;;;14.31;52.86;100879.50;4968717;28;19914;-81
2022/02/05 04:45:22;;;;;;;;;;;;;;;14.26;52.30;100876.97;4961274;28;20387;-81
2022/02/05 04:51:27;;;;;;;;;;;;;;;14.29;53.67;100881.75;4961548;28;19914;-81
2022/02/05 05:00:12;;;;;;;;;;;;;;;14.27;53.55;100888.72;4960088;28;20121;-81
2022/02/05 05:03:21;;;;;;;;;;;;;;;14.27;54.06;100881.31;4963377;28;19914;-81
2022/02/05 05:06:32;;;;;;;;;;;;;;;14.26;54.14;100885.16;4956395;28;19914;-81
2022/02/05 05:21:11;;;;;;;;;;;;;;;14.22;52.27;100889.69;4959674;28;19914;-81
2022/02/05 05:23:56;;;;;;;;;;;;;;;14.24;51.92;100900.31;4947011;29;19918;-81
2022/02/05 05:26:40;;;;;;;;;;;;;;;14.21;52.01;100896.31;4951472;28;19923;-81
2022/02/05 05:29:25;;;;;;;;;;;;;;;14.20;51.75;100897.44;4963108;28;19915;-81
2022/02/05 05:32:09;;;;;;;;;;;;;;;14.15;51.09;100892.19;4961370;28;19914;-81
2022/02/05 05:34:54;;;;;;;;;;;;;;;14.17;51.04;100894.59;4959059;28;19922;-81
2022/02/05 05:37:38;;;;;;;;;;;;;;;14.12;51.38;100898.31;4963427;28;19918;-82
2022/02/05 05:40:23;;;;;;;;;;;;;;;14.04;51.59;100897.25;4962728;28;19914;-81
2022/02/05 05:43:19;;;;;;;;;;;;;;;14.00;51.33;100901.78;4960186;28;19937;-81
2022/02/05 05:46:32;;;;;;;;;;;;;;;13.97;51.31;100907.91;4956380;28;19915;-80
2022/02/05 05:49:14;;;;;;;;;;;;;;;13.95;51.52;100906.66;4957475;28;19930;-81
2022/02/05 05:51:59;;;;;;;;;;;;;;;13.91;51.36;100914.72;4954164;29;19926;-81
2022/02/05 05:54:43;;;;;;;;;;;;;;;13.90;51.44;100918.59;4962369;28;19914;-81
2022/02/05 05:57:28;;;;;;;;;;;;;;;13.96;51.92;100919.19;4961558;28;20173;-81
2022/02/05 06:00:14;;;;;;;;;;;;;;;13.99;51.72;100927.53;4959785;28;19914;-82
2022/02/05 06:02:58;;;;;;;;;;;;;;;13.98;51.05;100925.13;4963115;28;20377;-81
2022/02/05 06:05:42;;;;;;;;;;;;;;;13.91;51.39;100924.88;4960688;28;19915;-81
2022/02/05 06:08:27;;;;;;;;;;;;;;;13.90;51.68;100935.00;4959746;28;19918;-81
2022/02/05 06:11:11;;;;;;;;;;;;;;;13.95;52.40;100934.00;4963276;28;19914;-81
2022/02/05 06:13:55;;;;;;;;;;;;;;;13.96;52.72;100938.34;4960633;28;20384;-81
2022/02/05 06:16:40;;;;;;;;;;;;;;;13.93;52.26;100941.72;4957661;28;19915;-81
2022/02/05 06:19:24;;;;;;;;;;;;;;;13.90;52.02;100951.41;4963304;28;19919;-80
2022/02/05 06:22:08;;;;;;;;;;;;;;;13.90;52.25;100947.84;4962192;28;19944;-81
2022/02/05 06:24:53;;;;;;;;;;;;;;;13.81;51.35;100942.47;4959241;28;19915;-81
2022/02/05 06:27:37;;;;;;;;;;;;;;;13.77;50.97;100951.63;4963978;29;20383;-81
2022/02/05 06:30:22;;;;;;;;;;;;;;;13.70;51.14;100949.44;4961902;28;19914;-81
2022/02/05 06:33:06;;;;;;;;;;;;;;;13.71;52.07;100961.97;4958126;28;19914;-81
2022/02/05 06:35:51;;;;;;;;;;;;;;;13.68;51.65;100968.88;4957061;28;19914;-82
2022/02/05 06:38:35;;;;;;;;;;;;;;;13.69;52.13;100967.75;4962192;29;19914;-81
2022/02/05 06:41:20;;;;;;;;;;;;;;;13.69;51.56;100978.69;4957298;29;19923;-80
2022/02/05 06:44:04;;;;;;;;;;;;;;;13.67;52.21;100974.66;4954986;29;20295;-81
2022/02/05 06:46:48;;;;;;;;;;;;;;;13.63;51.91;100984.66;4951228;29;19918;-83
2022/02/05 06:49:34;;;;;;;;;;;;;;;13.65;52.37;100988.69;4961641;28;19914;-84
2022/02/05 06:52:18;;;;;;;;;;;;;;;13.65;51.77;101002.34;4960209;28;20122;-84
2022/02/05 06:55:03;;;;;;;;;;;;;;;13.51;49.81;100993.53;4959134;28;19914;-84
2022/02/05 06:57:47;;;;;;;;;;;;;;;13.48;50.96;101002.41;4958861;28;19914;-83
2022/02/05 07:00:32;;;;;;;;;;;;;;;13.18;50.14;100998.81;4957235;29;19926;-82
2022/02/05 07:03:18;;;;;;;;;;;;;;;13.15;49.51;101012.31;4961855;28;19914;-81
2022/02/05 07:06:02;;;;;;;;;;;;;;;13.01;49.81;101009.72;4960189;29;19914;-82
2022/02/05 07:08:47;;;;;;;;;;;;;;;12.90;50.02;101011.19;4945256;29;19926;-82
2022/02/05 07:11:32;;;;;;;;;;;;;;;12.74;50.26;101015.56;4957647;28;19914;-82
2022/02/05 07:14:18;;;;;;;;;;;;;;;12.74;49.99;101019.09;4959571;29;19915;-81
2022/02/05 07:17:10;;;;;;;;;;;;;;;12.75;49.83;101020.69;4958603;28;19919;-82
2022/02/05 07:20:06;;;;;;;;;;;;;;;12.78;50.35;101022.78;4958861;28;19926;-81
2022/02/05 07:23:26;;;;;;;;;;;;;;;12.72;49.87;101026.78;4943431;29;19915;-82
2022/02/05 07:29:14;;;;;;;;;;;;;;;12.61;49.76;101020.06;4943921;29;20303;-83
2022/02/05 07:31:59;;;;;;;;;;;;;;;12.62;49.51;101029.03;4959965;28;19919;-81
2022/02/05 07:34:43;;;;;;;;;;;;;;;12.57;50.19;101030.00;4953633;28;19914;-82
2022/02/05 07:37:28;;;;;;;;;;;;;;;12.70;51.72;101028.22;4970940;28;19914;-82
2022/02/05 07:40:12;;;;;;;;;;;;;;;12.88;53.89;101039.94;4975178;28;19914;-83
2022/02/05 07:42:57;;;;;;;;;;;;;;;12.92;54.56;101040.91;4971238;28;20096;-83
2022/02/05 07:45:41;;;;;;;;;;;;;;;12.95;51.57;101046.53;4974948;28;19918;-83
2022/02/05 07:48:25;;;;;;;;;;;;;;;12.84;50.78;101056.97;4976810;28;19918;-83
2022/02/05 07:51:10;;;;;;;;;;;;;;;12.72;50.56;101056.81;4977824;28;20310;-84
2022/02/05 07:53:54;;;;;;;;;;;;;;;12.60;51.71;101059.38;4958890;28;19918;-84
2022/02/05 07:56:42;;;;;;;;;;;;;;;12.58;51.73;101066.28;4958522;28;19918;-84
2022/02/05 07:59:26;;;;;;;;;;;;;;;12.56;51.64;101065.78;4964744;28;19918;-83
2022/02/05 08:02:10;;;;;;;;;;;;;;;12.52;52.29;101073.00;4959361;28;19915;-83
2022/02/05 08:04:55;;;;;;;;;;;;;;;12.69;54.21;101079.28;4950624;29;19922;-83
2022/02/05 08:07:40;;;;;;;;;;;;;;;12.84;55.95;101078.81;4959011;28;19923;-83
2022/02/05 08:10:30;;;;;;;;;;;;;;;12.83;54.44;101076.41;4953081;28;19914;-82
2022/02/05 08:13:14;;;;;;;;;;;;;;;12.72;53.37;101070.44;4971158;28;19914;-84
2022/02/05 08:16:09;;;;;;;;;;;;;;;12.60;53.35;101075.72;4975500;28;19922;-84
2022/02/05 08:18:53;;;;;;;;;;;;;;;12.63;53.60;101082.50;4949800;28;19915;-84
2022/02/05 08:21:37;;;;;;;;;;;;;;;12.67;54.01;101089.72;4960310;28;19914;-85
2022/02/05 08:24:22;;;;;;;;;;;;;;;12.72;53.83;101100.47;4973942;28;19918;-85
2022/02/05 08:27:06;;;;;;;;;;;;;;;12.66;53.84;101100.94;4969660;28;19914;-82
2022/02/05 08:29:57;;;;;;;;;;;;;;;12.75;53.72;101102.53;4943480;29;20322;-85
2022/02/05 08:32:44;;;;;;;;;;;;;;;12.85;53.42;101102.22;4947400;28;19914;-85
2022/02/05 08:35:29;;;;;;;;;;;;;;;12.81;53.12;101095.81;4964585;28;19918;-84
2022/02/05 08:38:14;;;;;;;;;;;;;;;12.80;53.13;101091.47;4973720;28;19914;-84
2022/02/05 08:40:58;;;;;;;;;;;;;;;12.80;52.98;101105.13;4954729;28;20307;-83
2022/02/05 08:43:43;;;;;;;;;;;;;;;12.79;53.44;101109.00;4959563;28;19914;-84
2022/02/05 08:46:27;;;;;;;;;;;;;;;12.72;53.34;101105.94;4980674;28;19926;-83
2022/02/05 08:49:11;;;;;;;;;;;;;;;12.63;53.51;101107.03;4975924;28;20302;-83
2022/02/05 08:51:59;;;;;;;;;;;;;;;12.78;53.17;101104.66;4972044;28;19914;-84
2022/02/05 08:54:44;;;;;;;;;;;;;;;12.79;53.06;101111.72;4953707;28;19914;-84
2022/02/05 08:57:29;;;;;;;;;;;;;;;12.60;53.60;101102.22;4948693;28;19948;-83
2022/02/05 09:00:21;;;;;;;;;;;;;;;12.73;53.61;101104.81;4963432;28;19914;-83
2022/02/05 09:03:10;;;;;;;;;;;;;;;12.81;53.29;101105.91;4952754;28;19915;-84
2022/02/05 09:05:55;;;;;;;;;;;;;;;12.79;53.42;101114.44;4954165;28;19918;-84
2022/02/05 09:08:49;;;;;;;;;;;;;;;12.85;54.12;101115.88;4965916;28;19922;-82
2022/02/05 09:11:41;;;;;;;;;;;;;;;12.75;55.41;101118.13;4970862;28;19921;-82
2022/02/05 09:17:11;;;;;;;;;;;;;;;12.77;55.55;101116.69;4960173;28;19915;-83
2022/02/05 09:19:56;;;;;;;;;;;;;;;12.81;55.34;101120.38;4969527;28;19914;-84
2022/02/05 09:22:40;;;;;;;;;;;;;;;13.00;54.64;101113.81;4964432;28;19918;-83
2022/02/05 09:25:26;;;;;;;;;;;;;;;12.89;55.07;101118.78;4955190;28;20383;-83
2022/02/05 09:28:11;;;;;;;;;;;;;;;12.94;55.02;101120.56;4961170;28;19918;-84
2022/02/05 09:33:52;;;;;;;;;;;;;;;12.97;54.85;101120.72;4961849;28;19917;-83
2022/02/05 09:36:39;;;;;;;;;;;;;;;12.97;55.37;101117.97;4941204;29;19914;-84
2022/02/05 09:39:24;;;;;;;;;;;;;;;13.00;55.36;101119.28;4945736;29;20299;-84
2022/02/05 09:42:10;;;;;;;;;;;;;;;13.10;55.97;101125.22;4944198;29;20392;-84
2022/02/05 09:44:54;;;;;;;;;;;;;;;13.17;54.81;101122.00;4945595;29;19914;-82
2022/02/05 09:47:39;;;;;;;;;;;;;;;13.21;55.59;101128.44;4959013;28;19918;-83
2022/02/05 09:50:24;;;;;;;;;;;;;;;13.13;55.20;101132.78;4962494;28;20387;-83
2022/02/05 09:53:16;;;;;;;;;;;;;;;13.23;54.65;101132.47;4961165;28;20307;-82
2022/02/05 09:56:01;;;;;;;;;;;;;;;13.26;54.26;101140.00;4958403;28;19914;-83
2022/02/05 09:58:45;;;;;;;;;;;;;;;13.15;54.87;101140.66;4960965;28;19914;-83
2022/02/05 10:01:34;;;;;;;;;;;;;;;13.26;55.59;101144.66;4960490;28;19944;-83
2022/02/05 10:04:18;;;;;;;;;;;;;;;13.27;55.23;101141.59;4956142;28;20379;-82
2022/02/05 10:07:03;;;;;;;;;;;;;;;13.38;55.77;101157.66;4958175;28;19914;-84
2022/02/05 10:09:55;;;;;;;;;;;;;;;13.34;56.08;101157.50;4961087;28;19918;-84
2022/02/05 10:12:39;;;;;;;;;;;;;;;13.43;56.01;101152.84;4957650;28;19915;-83
2022/02/05 10:15:31;;;;;;;;;;;;;;;13.47;54.55;101155.72;4957619;28;19914;-84
2022/02/05 10:18:23;;;;;;;;;;;;;;;13.50;55.51;101163.28;4956683;28;20150;-83
2022/02/05 10:21:22;;;;;;;;;;;;;;;13.40;55.23;101167.16;4961230;28;20378;-83
2022/02/05 10:24:08;;;;;;;;;;;;;;;13.57;56.22;101161.66;4959475;28;19914;-83
2022/02/05 10:26:53;;;;;;;;;;;;;;;13.57;55.67;101150.72;4957253;29;19914;-83
2022/02/05 10:29:43;;;;;;;;;;;;;;;13.68;56.37;101152.00;4962979;28;20383;-83
2022/02/05 10:32:27;;;;;;;;;;;;;;;13.65;55.79;101158.13;4959809;28;19915;-83
2022/02/05 10:43:00;;;;;;;;;;;;;;;13.66;54.94;101158.94;4953834;28;19918;-82
2022/02/05 10:44:14;;;;;;;;;;;;;;;13.69;53.53;101159.06;4949584;28;19914;-83
2022/02/05 10:46:59;;;;;;;;;;;;;;;13.61;53.34;101157.13;4956228;28;19927;-83
2022/02/05 10:49:50;;;;;;;;;;;;;;;13.59;52.83;101153.94;4959148;28;19918;-84
2022/02/05 10:52:35;;;;;;;;;;;;;;;13.68;54.35;101157.47;4982694;28;19914;-83
2022/02/05 10:55:28;;;;;;;;;;;;;;;13.76;54.53;101164.03;4969416;28;19922;-84
2022/02/05 10:58:21;;;;;;;;;;;;;;;13.78;54.77;101150.03;4970943;28;20387;-84
2022/02/05 11:07:27;;;;;;;;;;;;;;;13.84;53.93;101151.47;4978415;28;19914;-81
2022/02/05 11:10:30;;;;;;;;;;;;;;;13.77;53.88;101156.63;4971561;28;19939;-79
2022/02/05 11:19:10;;;;;;;;;;;;;;;13.84;54.69;101165.13;4954095;28;19914;-84
2022/02/05 11:21:56;;;;;;;;;;;;;;;13.86;53.64;101166.44;4958615;28;20304;-82
2022/02/05 11:24:41;;;;;;;;;;;;;;;13.84;52.97;101151.47;4959106;28;19918;-84
2022/02/05 11:27:26;;;;;;;;;;;;;;;13.97;54.73;101142.25;4961698;28;19914;-84
2022/02/05 11:30:31;;;;;;;;;;;;;;;13.95;53.00;101141.78;4980463;28;19918;-85
2022/02/05 11:33:19;;;;;;;;;;;;;;;14.01;55.13;101154.16;4975207;28;19914;-85
2022/02/05 11:39:01;;;;;;;;;;;;;;;13.99;53.20;101153.66;4966288;28;20290;-85
2022/02/05 11:41:45;;;;;;;;;;;;;;;13.99;54.03;101154.47;4963313;28;19915;-87
2022/02/05 11:44:39;;;;;;;;;;;;;;;14.08;52.47;101152.50;4966908;28;19915;-85
2022/02/05 11:47:31;;;;;;;;;;;;;;;14.06;53.02;101157.50;4964976;28;19915;-84
2022/02/05 11:50:20;;;;;;;;;;;;;;;14.07;53.98;101144.63;4961341;28;19918;-83
2022/02/05 11:53:08;;;;;;;;;;;;;;;13.95;53.09;101148.06;4968241;28;20327;-84
2022/02/05 11:55:53;;;;;;;;;;;;;;;13.95;53.53;101147.25;4967640;28;19914;-84
2022/02/05 11:58:53;;;;;;;;;;;;;;;14.05;52.40;101144.16;4968117;28;19918;-84
2022/02/05 12:01:39;;;;;;;;;;;;;;;14.25;51.30;101140.69;4970607;28;19918;-83
2022/02/05 12:04:29;;;;;;;;;;;;;;;13.97;52.05;101132.09;4959996;28;19919;-85
2022/02/05 12:07:15;;;;;;;;;;;;;;;13.86;52.65;101139.09;4962977;28;19918;-84
2022/02/05 12:09:59;;;;;;;;;;;;;;;13.77;51.99;101124.63;4960893;28;19918;-84
2022/02/05 12:12:49;;;;;;;;;;;;;;;13.80;52.16;101125.91;4951761;28;19928;-84
2022/02/05 12:15:34;;;;;;;;;;;;;;;13.98;52.50;101132.91;4956445;28;19926;-84
2022/02/05 12:18:23;;;;;;;;;;;;;;;13.95;51.52;101125.38;4959955;28;19915;-84
2022/02/05 12:21:16;;;;;;;;;;;;;;;14.10;52.42;101131.09;4957591;28;19914;-84
2022/02/05 12:24:22;;;;;;;;;;;;;;;13.86;51.87;101133.63;4953300;28;19918;-83
2022/02/05 12:27:30;;;;;;;;;;;;;;;13.85;51.39;101125.75;4954511;28;19914;-83
2022/02/05 12:30:27;;;;;;;;;;;;;;;14.01;51.40;101118.59;4963623;28;19934;-82
2022/02/05 12:33:11;;;;;;;;;;;;;;;14.24;51.13;101119.13;4956058;28;19919;-83
2022/02/05 12:35:56;;;;;;;;;;;;;;;14.05;51.56;101125.03;4952003;28;20299;-82
2022/02/05 12:38:40;;;;;;;;;;;;;;;14.05;51.65;101122.28;4955835;28;19915;-83
2022/02/05 12:41:26;;;;;;;;;;;;;;;14.08;51.85;101124.34;4953299;28;19914;-83
2022/02/05 12:44:10;;;;;;;;;;;;;;;14.02;51.34;101117.44;4950420;28;19915;-84
2022/02/05 12:47:02;;;;;;;;;;;;;;;14.61;48.09;101106.56;4953440;28;19914;-77
2022/02/05 12:52:32;;;;;;;;;;;;;;;15.20;46.69;101102.53;4953848;28;20395;-76
2022/02/05 12:55:25;;;;;;;;;;;;;;;15.63;45.84;101101.31;4954258;28;19923;-77
2022/02/05 12:58:10;;;;;;;;;;;;;;;14.57;48.20;101094.69;4955780;28;19918;-78
2022/02/05 13:01:05;;;;;;;;;;;;;;;14.79;45.92;101099.81;4959246;28;19915;-77
2022/02/05 13:03:50;;;;;;;;;;;;;;;15.01;46.83;101099.47;4962638;28;19918;-80
2022/02/05 13:06:34;;;;;;;;;;;;;;;15.44;45.72;101112.75;4952384;28;19922;-77
2022/02/05 13:09:20;;;;;;;;;;;;;;;15.32;45.78;101104.50;4946557;28;19922;-77
2022/02/05 13:12:09;;;;;;;;;;;;;;;16.98;41.85;101114.63;4959378;28;19914;-78
2022/02/05 13:15:07;;;;;;;;;;;;;;;21.04;33.85;101116.13;4951187;28;19914;-77
2022/02/05 13:26:58;;;;;;;;;;;;;;;23.95;27.60;101123.69;4947880;28;19918;-79
2022/02/05 13:29:58;;;;;;;;;;;;;;;23.86;27.83;101119.31;4945903;28;20396;-78
2022/02/05 13:35:55;;;;;;;;;;;;;;;24.51;26.70;101134.00;4952155;28;19914;-78
2022/02/05 13:42:05;;;;;;;;;;;;;;;25.13;26.02;101143.41;4959593;29;19914;-80
2022/02/05 13:44:56;;;;;;;;;;;;;;;23.58;27.77;101137.91;4973933;28;20591;-78
2022/02/05 13:47:43;;;;;;;;;;;;;;;22.95;28.80;101140.06;4978618;28;19902;-82
2022/02/05 13:50:31;;;;;;;;;;;;;;;21.94;30.58;101149.19;4978202;28;20114;-83
2022/02/05 13:53:16;;;;;;;;;;;;;;;23.15;28.50;101150.84;4977493;28;19923;-84
2022/02/05 13:56:04;;;;;;;;;;;;;;;22.40;29.00;101142.03;4970098;29;19918;-84
2022/02/05 13:58:49;;;;;;;;;;;;;;;23.75;27.82;101143.50;4974400;28;19914;-84
2022/02/05 14:01:35;;;;;;;;;;;;;;;23.92;27.37;101146.72;4970468;28;19923;-83
2022/02/05 14:04:23;;;;;;;;;;;;;;;24.74;26.21;101153.03;4974990;28;19915;-84
2022/02/05 14:07:07;;;;;;;;;;;;;;;24.19;26.54;101150.69;4975393;28;19914;-83
2022/02/05 14:09:52;;;;;;;;;;;;;;;22.71;28.87;101149.00;4973936;28;19918;-83
2022/02/05 14:12:45;;;;;;;;;;;;;;;21.51;31.44;101140.44;4977164;28;19918;-82
2022/02/05 14:15:43;;;;;;;;;;;;;;;21.97;31.28;101149.22;4974363;28;19914;-83
2022/02/05 14:18:30;;;;;;;;;;;;;;;22.61;29.69;101147.72;4972521;28;19914;-84
2022/02/05 14:21:14;;;;;;;;;;;;;;;22.45;30.04;101149.22;4978954;28;20306;-83
2022/02/05 14:24:00;;;;;;;;;;;;;;;21.49;31.38;101150.25;4974290;29;19914;-82
2022/02/05 14:30:11;;;;;;;;;;;;;;;18.38;37.17;101154.56;4955361;28;19922;-83
2022/02/05 14:32:58;;;;;;;;;;;;;;;19.80;34.88;101147.38;4981858;28;19914;-84
2022/02/05 14:36:12;;;;;;;;;;;;;;;20.78;32.49;101147.38;4978946;28;19914;-83
2022/02/05 14:41:54;;;;;;;;;;;;;;;20.34;33.25;101162.91;4980355;28;19915;-84
2022/02/05 14:44:38;;;;;;;;;;;;;;;19.35;35.46;101167.34;4978523;28;19910;-83
2022/02/05 14:47:23;;;;;;;;;;;;;;;20.03;34.46;101161.16;4982267;28;20375;-84
2022/02/05 14:50:08;;;;;;;;;;;;;;;20.27;33.82;101159.97;4980136;28;19919;-83
2022/02/05 14:52:53;;;;;;;;;;;;;;;19.27;35.85;101160.09;4978789;28;19914;-83
2022/02/05 14:55:37;;;;;;;;;;;;;;;18.79;36.65;101164.22;4975666;28;19914;-83
2022/02/05 14:58:22;;;;;;;;;;;;;;;18.93;36.46;101171.97;4981699;28;19922;-82
2022/02/05 15:01:06;;;;;;;;;;;;;;;18.91;36.38;101163.25;4978365;28;19902;-84
2022/02/05 15:03:51;;;;;;;;;;;;;;;18.20;37.83;101167.88;4977699;28;19914;-84
2022/02/05 15:06:36;;;;;;;;;;;;;;;18.05;37.49;101167.88;4975341;28;19915;-84
2022/02/05 15:09:21;;;;;;;;;;;;;;;18.31;37.53;101170.91;4981348;28;19918;-82
2022/02/05 15:12:06;;;;;;;;;;;;;;;18.16;37.52;101177.22;4976941;28;19914;-85
2022/02/05 15:14:50;;;;;;;;;;;;;;;17.38;39.20;101178.63;4974480;28;19914;-84
2022/02/05 15:17:42;;;;;;;;;;;;;;;17.20;39.45;101182.03;4977719;28;19915;-84
2022/02/05 15:20:27;;;;;;;;;;;;;;;17.30;39.50;101182.34;4977040;28;19914;-84
2022/02/05 15:23:12;;;;;;;;;;;;;;;17.20;39.95;101193.03;4974650;28;19922;-83
2022/02/05 15:26:01;;;;;;;;;;;;;;;16.96;40.37;101200.19;4976700;28;19911;-84
2022/02/05 15:28:47;;;;;;;;;;;;;;;16.56;40.83;101197.31;4977049;28;19918;-83
2022/02/05 15:31:32;;;;;;;;;;;;;;;15.83;42.00;101196.44;4980690;28;19918;-84
2022/02/05 15:34:17;;;;;;;;;;;;;;;16.35;41.50;101196.63;4977903;28;19902;-83
2022/02/05 15:37:08;;;;;;;;;;;;;;;16.51;41.12;101196.72;4977004;28;19918;-84
2022/02/05 15:45:50;;;;;;;;;;;;;;;15.78;43.33;101213.09;4973519;28;19914;-83
2022/02/05 15:48:34;;;;;;;;;;;;;;;15.68;43.43;101216.25;4979721;28;20295;-83
2022/02/05 15:51:21;;;;;;;;;;;;;;;15.43;43.94;101211.78;4977447;28;19902;-83
2022/02/05 15:54:08;;;;;;;;;;;;;;;15.04;44.98;101215.75;4975149;28;19922;-83
2022/02/05 16:02:28;;;;;;;;;;;;;;;13.84;48.32;101217.06;4975265;28;19915;-83
2022/02/05 16:05:13;;;;;;;;;;;;;;;13.47;49.58;101219.38;4977546;28;19914;-82
2022/02/05 16:07:57;;;;;;;;;;;;;;;13.15;50.65;101220.66;4977786;28;20371;-82
2022/02/05 16:10:42;;;;;;;;;;;;;;;13.20;50.33;101219.69;4974809;28;19922;-83
2022/02/05 16:13:26;;;;;;;;;;;;;;;13.16;50.58;101219.50;4980036;28;19918;-82
2022/02/05 16:16:11;;;;;;;;;;;;;;;13.06;50.77;101219.78;4975026;28;19918;-82
2022/02/05 16:18:56;;;;;;;;;;;;;;;12.94;51.50;101225.09;4974188;28;19914;-84
2022/02/05 16:21:40;;;;;;;;;;;;;;;12.89;51.29;101227.16;4979875;28;19914;-84
2022/02/05 16:24:25;;;;;;;;;;;;;;;12.72;51.71;101226.00;4977030;28;19914;-83
2022/02/05 16:27:09;;;;;;;;;;;;;;;12.62;51.89;101229.00;4975908;28;19914;-83
2022/02/05 16:29:57;;;;;;;;;;;;;;;12.62;52.22;101223.56;4973752;28;19918;-82
2022/02/05 16:32:42;;;;;;;;;;;;;;;12.45;52.59;101228.94;4976845;28;19918;-84
2022/02/05 16:35:29;;;;;;;;;;;;;;;12.42;52.61;101233.13;4975076;28;19899;-83
2022/02/05 16:38:19;;;;;;;;;;;;;;;12.37;52.41;101232.44;4973802;28;19914;-82
2022/02/05 16:41:07;;;;;;;;;;;;;;;12.22;53.14;101247.31;4977559;28;19902;-84
2022/02/05 16:43:52;;;;;;;;;;;;;;;12.05;53.82;101249.09;4974393;28;19919;-82
2022/02/05 16:46:40;;;;;;;;;;;;;;;11.83;54.51;101253.50;4972666;28;19922;-83
2022/02/05 16:49:26;;;;;;;;;;;;;;;11.82;54.48;101254.59;4976278;28;20402;-84
2022/02/05 16:52:11;;;;;;;;;;;;;;;11.83;54.66;101266.31;4974230;28;19914;-84
2022/02/05 16:54:56;;;;;;;;;;;;;;;11.76;54.96;101269.44;4972532;28;19914;-84
2022/02/05 16:57:40;;;;;;;;;;;;;;;11.72;55.26;101282.06;4976441;28;19899;-82
2022/02/05 17:00:26;;;;;;;;;;;;;;;11.67;55.44;101281.38;4979530;28;19914;-83
2022/02/05 17:03:11;;;;;;;;;;;;;;;11.63;55.56;101289.34;4972892;28;19914;-83
2022/02/05 17:05:56;;;;;;;;;;;;;;;11.56;54.94;101299.88;4975428;28;19914;-84
2022/02/05 17:08:40;;;;;;;;;;;;;;;11.49;54.80;101310.38;4975055;28;19910;-83
2022/02/05 17:11:25;;;;;;;;;;;;;;;11.33;55.23;101311.81;4979468;28;19915;-83
2022/02/05 17:14:09;;;;;;;;;;;;;;;11.25;55.40;101320.69;4978860;28;19898;-82